Cochecton, NY (12726)

8:09 AM EDT on July 29, 2016 (GMT -0400)
Swan Lake, NY | | Change Station

Elev 1378 ft 41.75 °N, 74.78 °W | Updated 10 minutes ago

Overcast
Overcast
69.3 °F
Feels Like 69.3 °F
N
0.0
Wind Variable Wind from SW

Today
High -- | Low -- °F
--% Chance of Precip.
Yesterday
High -- | Low -- °F
Precip. -- in
Pressure 29.93 in
Visibility 5.0 miles
Clouds Scattered Clouds 600 ft
Overcast 1100 ft
Dew Point 68 °F
Humidity 94%
Rainfall 0.07 in
Snow Depth Not available.
5:50 AM 8:19 PM
Waning Crescent, 22% visible
METAR KMSV 291155Z AUTO 00000KT 5SM SCT006 OVC011 20/19 A2993 RMK AO1 10200 20190 52014
Pressure 29.93 in
Visibility 5.0 miles
Clouds Scattered Clouds 600 ft
Overcast 1100 ft
Dew Point 68 °F
Humidity 94%
Rainfall 0.07 in
Snow Depth Not available.
5:50 AM 8:19 PM
Waning Crescent, 22% visible
METAR KMSV 291155Z AUTO 00000KT 5SM SCT006 OVC011 20/19 A2993 RMK AO1 10200 20190 52014

10-Day Weather Forecast

Almanac

Astronomy

Jul. 29, 2016 Rise Set
Actual Time
Civil Twilight
Nautical Twilight
Astronomical Twilight
Moon
Length of Visible Light
Length of Day
Tomorrow will be .
, % of the Moon is Illuminated

Today's Extremes

State Highs State Lows

Community

WunderPhotos

Upload Photos

1,928,330 photos uploaded!

WunderBlog® & News

Nearby

Air Quality

  Air Quality AQ Index Pollutant
Not available.

Snow Depth

Station Depth Elevation

Earthquake Activity

City Distance Mag. Time & Date
Minimum magnitude displayed is 2.5.

Coastal Water Temperatures

Place Temperature

Stations

Nearby Weather Stations

Station Location Temp. Windchill Dew Point Humidity Wind Precip. Elev Updated Type
                   

Watches & Warnings

There are currently no watches in effect.